createdAt,value
2022-09-14T00:00:19.318Z,10.27
2022-09-14T00:01:26.298Z,10.37
2022-09-14T00:02:25.260Z,10.29
2022-09-14T00:03:27.256Z,10.19
2022-09-14T00:04:29.022Z,10.29
2022-09-14T00:05:30.822Z,10.39
2022-09-14T00:06:32.725Z,10.14
2022-09-14T00:07:34.572Z,9.63
2022-09-14T00:08:36.386Z,10.55
2022-09-14T00:09:38.190Z,9.61
2022-09-14T00:10:40.093Z,10.17
2022-09-14T00:11:41.901Z,11.19
2022-09-14T00:12:43.747Z,10.06
2022-09-14T00:13:45.551Z,10.79
2022-09-14T00:14:47.345Z,10.61
2022-09-14T00:15:49.145Z,10.47
2022-09-14T00:16:51.581Z,10.63
2022-09-14T00:17:53.403Z,10.44
2022-09-14T00:18:55.209Z,10.00
2022-09-14T00:19:57.006Z,10.46
2022-09-14T00:20:59.091Z,10.31
2022-09-14T00:22:00.907Z,10.45
2022-09-14T00:23:02.748Z,10.65
2022-09-14T00:24:04.553Z,10.24
2022-09-14T00:25:06.355Z,9.93
2022-09-14T00:26:08.559Z,10.75
2022-09-14T00:27:10.360Z,10.07
2022-09-14T00:28:12.212Z,9.64
2022-09-14T00:29:14.008Z,9.85
2022-09-14T00:30:16.438Z,9.81
2022-09-14T00:31:18.343Z,9.29
2022-09-14T00:32:20.230Z,9.84
2022-09-14T00:33:22.054Z,9.42
2022-09-14T00:34:23.857Z,9.55
2022-09-14T00:35:25.682Z,9.53
2022-09-14T00:36:27.791Z,9.36
2022-09-14T00:37:29.582Z,9.26
2022-09-14T00:38:31.414Z,9.02
2022-09-14T00:39:33.240Z,8.79
2022-09-14T00:40:35.343Z,8.37
2022-09-14T00:41:37.140Z,8.70
2022-09-14T00:42:38.946Z,8.41
2022-09-14T00:43:40.996Z,7.77
2022-09-14T00:44:42.788Z,7.71
2022-09-14T00:45:44.623Z,7.53
2022-09-14T00:46:46.807Z,7.05
2022-09-14T00:47:48.627Z,7.33
2022-09-14T00:48:50.455Z,6.69
2022-09-14T00:49:52.275Z,6.61
2022-09-14T00:50:54.183Z,6.92
2022-09-14T00:51:55.976Z,6.64
2022-09-14T00:52:57.771Z,6.80
2022-09-14T00:53:59.617Z,6.56
2022-09-14T00:55:01.423Z,6.99
2022-09-14T00:56:03.321Z,6.19
2022-09-14T00:57:05.123Z,6.37
2022-09-14T00:58:06.919Z,6.17
2022-09-14T00:59:08.769Z,6.57
2022-09-14T01:00:10.881Z,6.81
2022-09-14T01:01:12.822Z,7.26
2022-09-14T01:02:14.687Z,6.39
2022-09-14T01:03:16.602Z,7.10
2022-09-14T01:04:18.445Z,6.96
2022-09-14T01:05:20.233Z,7.40
2022-09-14T01:06:23.850Z,7.24
2022-09-14T01:07:25.665Z,7.26
2022-09-14T01:08:27.466Z,7.02
2022-09-14T01:09:29.337Z,7.28
2022-09-14T01:10:32.947Z,7.88
2022-09-14T01:11:34.762Z,7.35
2022-09-14T01:12:36.567Z,7.22
2022-09-14T01:13:38.376Z,7.86
2022-09-14T01:14:40.198Z,7.71
2022-09-14T01:15:42.008Z,7.46
2022-09-14T01:16:43.951Z,7.85
2022-09-14T01:17:45.835Z,8.01
2022-09-14T01:18:48.068Z,7.74
2022-09-14T01:19:49.903Z,8.45
2022-09-14T01:20:52.010Z,8.09
2022-09-14T01:21:53.807Z,8.84
2022-09-14T01:22:55.619Z,8.02
2022-09-14T01:23:57.432Z,8.22
2022-09-14T01:24:59.269Z,9.06
2022-09-14T01:26:01.065Z,10.54
2022-09-14T01:27:02.859Z,10.29
2022-09-14T01:28:04.665Z,10.56
2022-09-14T01:29:06.462Z,10.85
2022-09-14T01:30:08.595Z,11.16
2022-09-14T01:31:10.460Z,11.05
2022-09-14T01:32:12.201Z,11.40
2022-09-14T01:33:13.995Z,11.53
2022-09-14T01:34:15.816Z,11.35
2022-09-14T01:35:17.649Z,11.09
2022-09-14T01:36:19.759Z,11.14
2022-09-14T01:37:21.761Z,11.85
2022-09-14T01:38:23.551Z,11.61
2022-09-14T01:39:25.389Z,12.33
2022-09-14T01:40:27.345Z,12.20
2022-09-14T01:41:29.082Z,11.82
2022-09-14T01:42:30.883Z,11.62
2022-09-14T01:43:36.566Z,12.32
2022-09-14T01:44:36.405Z,11.91
2022-09-14T01:45:38.326Z,11.39
2022-09-14T01:46:40.457Z,11.83
2022-09-14T01:47:42.260Z,12.27
2022-09-14T01:48:44.048Z,12.13
2022-09-14T01:49:45.871Z,11.79
2022-09-14T01:50:47.808Z,12.61
2022-09-14T01:51:49.609Z,12.41
2022-09-14T01:52:51.412Z,11.95
2022-09-14T01:53:53.200Z,13.12
2022-09-14T01:54:54.991Z,11.63
2022-09-14T01:55:56.822Z,13.15
2022-09-14T01:56:58.732Z,12.26
2022-09-14T01:58:00.516Z,13.04
2022-09-14T01:59:02.317Z,12.67
2022-09-14T02:00:04.109Z,13.48
2022-09-14T02:01:06.027Z,12.51
2022-09-14T02:02:07.997Z,12.71
2022-09-14T02:03:09.862Z,12.47
2022-09-14T02:04:11.765Z,11.79
2022-09-14T02:05:14.602Z,12.01
2022-09-14T02:06:18.171Z,12.23
2022-09-14T02:07:19.978Z,11.93
2022-09-14T02:08:21.767Z,11.80
2022-09-14T02:09:23.565Z,10.89
2022-09-14T02:10:25.988Z,10.65
2022-09-14T02:11:27.817Z,10.99
2022-09-14T02:12:29.617Z,11.05
2022-09-14T02:13:31.425Z,10.51
2022-09-14T02:14:33.219Z,11.12
2022-09-14T02:15:35.006Z,10.38
2022-09-14T02:16:37.031Z,10.22
2022-09-14T02:17:38.860Z,9.87
2022-09-14T02:18:40.724Z,10.01
2022-09-14T02:19:42.484Z,10.34
2022-09-14T02:20:44.508Z,9.01
2022-09-14T02:21:46.329Z,9.01
2022-09-14T02:22:48.116Z,9.01
2022-09-14T02:23:49.912Z,8.63
2022-09-14T02:24:51.719Z,8.23
2022-09-14T02:25:53.516Z,8.32
2022-09-14T02:26:55.430Z,8.27
2022-09-14T02:27:57.220Z,7.51
2022-09-14T02:28:59.022Z,7.91
2022-09-14T02:30:00.836Z,7.54
2022-09-14T02:31:02.735Z,7.34
2022-09-14T02:32:04.562Z,7.31
2022-09-14T02:33:06.389Z,6.73
2022-09-14T02:34:08.185Z,6.83
2022-09-14T02:35:09.984Z,6.56
2022-09-14T02:36:12.655Z,6.13
2022-09-14T02:37:14.475Z,5.95
2022-09-14T02:38:16.265Z,7.13
2022-09-14T02:39:18.088Z,7.19
2022-09-14T02:40:20.981Z,7.09
2022-09-14T02:41:22.826Z,6.49
2022-09-14T02:42:24.648Z,6.12
2022-09-14T02:43:26.436Z,6.01
2022-09-14T02:44:28.238Z,5.34
2022-09-14T02:45:30.037Z,5.37
2022-09-14T02:46:32.165Z,5.26
2022-09-14T02:47:33.972Z,5.29
2022-09-14T02:48:35.781Z,4.99
2022-09-14T02:49:37.572Z,4.82
2022-09-14T02:50:39.466Z,4.93
2022-09-14T02:51:41.446Z,4.47
2022-09-14T02:52:43.292Z,4.99
2022-09-14T02:53:45.079Z,4.80
2022-09-14T02:54:46.879Z,4.60
2022-09-14T02:55:48.668Z,4.61
2022-09-14T02:56:50.566Z,4.82
2022-09-14T02:57:52.306Z,4.85
2022-09-14T02:58:54.094Z,4.94
2022-09-14T02:59:55.893Z,4.45
2022-09-14T03:00:57.955Z,4.73
2022-09-14T03:01:59.745Z,4.59
2022-09-14T03:03:01.517Z,4.31
2022-09-14T03:04:03.316Z,4.39
2022-09-14T03:05:05.106Z,4.06
2022-09-14T03:06:07.002Z,4.05
2022-09-14T03:07:08.918Z,4.16
2022-09-14T03:08:10.743Z,4.39
2022-09-14T03:09:12.541Z,4.32
2022-09-14T03:10:14.738Z,3.95
2022-09-14T03:11:16.527Z,4.17
2022-09-14T03:12:18.353Z,3.87
2022-09-14T03:13:20.203Z,3.88
2022-09-14T03:14:21.999Z,4.11
2022-09-14T03:15:23.800Z,4.26
2022-09-14T03:16:25.737Z,4.10
2022-09-14T03:17:27.485Z,4.00
2022-09-14T03:18:29.331Z,3.53
2022-09-14T03:19:31.122Z,3.88
2022-09-14T03:20:33.218Z,3.41
2022-09-14T03:21:35.025Z,3.39
2022-09-14T03:22:36.962Z,3.62
2022-09-14T03:23:38.792Z,3.61
2022-09-14T03:24:40.679Z,3.31
2022-09-14T03:25:42.477Z,3.75
2022-09-14T03:26:44.377Z,3.71
2022-09-14T03:27:46.176Z,3.29
2022-09-14T03:28:47.914Z,3.30
2022-09-14T03:29:49.709Z,3.53
2022-09-14T03:30:51.709Z,3.85
2022-09-14T03:31:53.726Z,3.40
2022-09-14T03:32:55.557Z,3.64
2022-09-14T03:33:57.391Z,3.29
2022-09-14T03:34:59.181Z,3.36
2022-09-14T03:36:00.981Z,3.17
2022-09-14T03:37:02.690Z,3.46
2022-09-14T03:38:04.591Z,3.29
2022-09-14T03:39:06.442Z,3.30
2022-09-14T03:40:08.700Z,2.87
2022-09-14T03:41:10.470Z,3.17
2022-09-14T03:42:12.393Z,2.93
2022-09-14T03:43:14.203Z,2.77
2022-09-14T03:44:16.060Z,3.43
2022-09-14T03:45:17.854Z,3.17
2022-09-14T03:46:20.111Z,3.30
2022-09-14T03:47:21.862Z,2.97
2022-09-14T03:48:23.866Z,3.38
2022-09-14T03:49:25.712Z,3.20
2022-09-14T03:50:27.619Z,3.54
2022-09-14T03:51:29.418Z,3.51
2022-09-14T03:52:31.215Z,3.41
2022-09-14T03:53:33.049Z,3.81
2022-09-14T03:54:34.887Z,3.58
2022-09-14T03:55:36.713Z,4.40
2022-09-14T03:56:38.718Z,4.59
2022-09-14T03:57:40.526Z,4.33
2022-09-14T03:58:42.319Z,5.09
2022-09-14T03:59:44.154Z,4.84
2022-09-14T04:00:46.059Z,5.42
2022-09-14T04:01:47.925Z,5.20
2022-09-14T04:02:49.897Z,5.79
2022-09-14T04:03:51.670Z,5.80
2022-09-14T04:04:53.517Z,5.92
2022-09-14T04:05:55.325Z,5.83
2022-09-14T04:06:57.343Z,6.39
2022-09-14T04:07:59.142Z,6.23
2022-09-14T04:09:00.988Z,6.57
2022-09-14T04:10:02.931Z,6.40
2022-09-14T04:11:04.737Z,6.36
2022-09-14T04:12:06.545Z,6.11
2022-09-14T04:13:08.342Z,6.83
2022-09-14T04:14:10.145Z,6.51
2022-09-14T04:15:11.992Z,6.89
2022-09-14T04:16:15.596Z,7.03
2022-09-14T04:17:17.414Z,7.09
2022-09-14T04:18:19.211Z,7.38
2022-09-14T04:19:21.040Z,7.13
2022-09-14T04:20:23.908Z,6.97
2022-09-14T04:21:25.799Z,7.38
2022-09-14T04:22:27.609Z,6.80
2022-09-14T04:23:29.435Z,7.22
2022-09-14T04:24:31.653Z,7.41
2022-09-14T04:25:33.502Z,7.21
2022-09-14T04:26:35.615Z,6.87
2022-09-14T04:27:37.423Z,6.87
2022-09-14T04:28:39.223Z,7.15
2022-09-14T04:29:41.050Z,7.58
2022-09-14T04:30:42.985Z,7.69
2022-09-14T04:31:44.843Z,6.99
2022-09-14T04:32:46.693Z,6.95
2022-09-14T04:33:48.569Z,6.61
2022-09-14T04:34:50.407Z,6.95
2022-09-14T04:35:52.249Z,6.79
2022-09-14T04:36:54.242Z,6.53
2022-09-14T04:37:56.046Z,6.49
2022-09-14T04:38:57.854Z,6.25
2022-09-14T04:39:59.779Z,7.00
2022-09-14T04:41:01.555Z,6.65
2022-09-14T04:42:04.176Z,6.96
2022-09-14T04:43:05.996Z,6.62
2022-09-14T04:44:07.818Z,6.63
2022-09-14T04:45:09.620Z,6.78
2022-09-14T04:46:13.336Z,6.17
2022-09-14T04:47:15.084Z,6.45
2022-09-14T04:48:16.884Z,6.26
2022-09-14T04:49:18.707Z,6.29
2022-09-14T04:50:21.005Z,6.44
2022-09-14T04:51:22.866Z,6.49
2022-09-14T04:52:24.681Z,6.41
2022-09-14T04:53:26.475Z,6.31
2022-09-14T04:54:28.279Z,6.15
2022-09-14T04:55:30.090Z,7.23
2022-09-14T04:56:32.462Z,7.03
2022-09-14T04:57:34.273Z,6.49
2022-09-14T04:58:36.085Z,6.64
2022-09-14T04:59:37.893Z,6.86
2022-09-14T05:00:40.103Z,6.62
2022-09-14T05:01:41.991Z,6.03
2022-09-14T05:02:43.918Z,6.02
2022-09-14T05:03:45.661Z,6.15
2022-09-14T05:04:47.489Z,5.49
2022-09-14T05:05:51.095Z,5.64
2022-09-14T05:06:53.060Z,6.03
2022-09-14T05:07:54.859Z,6.51
2022-09-14T05:08:56.652Z,6.18
2022-09-14T05:09:58.447Z,6.06
2022-09-14T05:11:00.442Z,6.06
2022-09-14T05:12:02.280Z,5.73
2022-09-14T05:13:04.102Z,6.13
2022-09-14T05:14:05.914Z,5.78
2022-09-14T05:15:07.727Z,6.10
2022-09-14T05:16:10.033Z,5.07
2022-09-14T05:17:11.960Z,5.72
2022-09-14T05:18:13.772Z,5.90
2022-09-14T05:19:15.583Z,5.50
2022-09-14T05:20:17.864Z,5.77
2022-09-14T05:21:19.755Z,5.79
2022-09-14T05:22:21.607Z,5.57
2022-09-14T05:23:23.438Z,5.43
2022-09-14T05:24:25.237Z,5.59
2022-09-14T05:25:27.049Z,5.61
2022-09-14T05:26:29.468Z,5.72
2022-09-14T05:27:31.315Z,5.50
2022-09-14T05:28:33.132Z,5.29
2022-09-14T05:29:34.970Z,5.55
2022-09-14T05:30:37.308Z,5.65
2022-09-14T05:31:39.156Z,5.84
2022-09-14T05:32:41.058Z,5.36
2022-09-14T05:33:42.949Z,5.53
2022-09-14T05:34:44.781Z,5.40
2022-09-14T05:35:46.585Z,5.43
2022-09-14T05:36:49.194Z,5.50
2022-09-14T05:37:52.020Z,6.17
2022-09-14T05:38:53.889Z,5.68
2022-09-14T05:39:55.878Z,5.45
2022-09-14T05:40:57.801Z,5.35
2022-09-14T05:41:59.637Z,5.87
2022-09-14T05:43:01.564Z,5.27
2022-09-14T05:44:03.379Z,5.37
2022-09-14T05:45:05.207Z,5.30
2022-09-14T05:46:07.401Z,5.40
2022-09-14T05:47:09.216Z,5.44
2022-09-14T05:48:11.065Z,5.14
2022-09-14T05:49:12.875Z,5.29
2022-09-14T05:50:15.683Z,5.28
2022-09-14T05:51:17.495Z,5.58
2022-09-14T05:52:19.291Z,5.37
2022-09-14T05:53:21.131Z,5.19
2022-09-14T05:54:22.936Z,5.01
2022-09-14T05:55:24.741Z,5.10
2022-09-14T05:56:27.477Z,5.66
2022-09-14T05:57:29.364Z,5.96
2022-09-14T05:58:31.376Z,5.51
2022-09-14T05:59:33.174Z,5.45
2022-09-14T06:00:35.430Z,4.99
2022-09-14T06:01:37.276Z,5.25
2022-09-14T06:02:39.174Z,4.89
2022-09-14T06:03:41.100Z,5.50
2022-09-14T06:04:43.169Z,5.59
2022-09-14T06:05:45.382Z,5.66
2022-09-14T06:07:07.707Z,5.36
2022-09-14T06:07:51.142Z,5.05
2022-09-14T06:08:52.965Z,5.28
2022-09-14T06:09:54.674Z,5.61
2022-09-14T06:10:56.592Z,5.85
2022-09-14T06:11:58.755Z,4.87
2022-09-14T06:13:01.001Z,5.40
2022-09-14T06:14:03.204Z,5.21
2022-09-14T06:15:04.991Z,5.41
2022-09-14T06:16:07.090Z,5.53
2022-09-14T06:17:08.885Z,5.71
2022-09-14T06:18:10.771Z,5.48
2022-09-14T06:19:12.719Z,5.99
2022-09-14T06:20:14.828Z,5.70
2022-09-14T06:21:16.624Z,5.83
2022-09-14T06:22:18.421Z,6.34
2022-09-14T06:23:20.639Z,6.25
2022-09-14T06:24:22.780Z,6.21
2022-09-14T06:25:24.602Z,6.30
2022-09-14T06:26:26.701Z,6.45
2022-09-14T06:27:28.503Z,5.95
2022-09-14T06:28:30.402Z,6.39
2022-09-14T06:29:32.232Z,6.16
2022-09-14T06:30:34.122Z,6.28
2022-09-14T06:31:35.940Z,6.17
2022-09-14T06:32:37.904Z,5.94
2022-09-14T06:33:40.034Z,6.21
2022-09-14T06:34:42.198Z,6.11
2022-09-14T06:35:44.058Z,6.05
2022-09-14T06:36:45.957Z,5.69
2022-09-14T06:37:47.831Z,6.12
2022-09-14T06:38:49.679Z,6.14
2022-09-14T06:39:51.593Z,6.15
2022-09-14T06:40:53.784Z,6.35
2022-09-14T06:41:55.895Z,6.39
2022-09-14T06:42:57.698Z,5.94
2022-09-14T06:43:59.533Z,6.15
2022-09-14T06:45:01.371Z,6.17
2022-09-14T06:46:03.270Z,6.34
2022-09-14T06:47:05.075Z,6.46
2022-09-14T06:48:07.021Z,6.38
2022-09-14T06:49:08.973Z,6.11
2022-09-14T06:50:11.587Z,6.23
2022-09-14T06:51:14.297Z,6.52
2022-09-14T06:52:16.316Z,6.76
2022-09-14T06:53:18.114Z,6.74
2022-09-14T06:54:19.923Z,6.13
2022-09-14T06:55:21.756Z,6.04
2022-09-14T06:56:23.880Z,6.55
2022-09-14T06:57:25.694Z,5.76
2022-09-14T06:58:27.496Z,6.65
2022-09-14T06:59:29.542Z,6.07
2022-09-14T07:00:32.203Z,6.17
2022-09-14T07:01:34.257Z,5.89
2022-09-14T07:02:36.537Z,6.72
2022-09-14T07:03:38.770Z,6.17
2022-09-14T07:04:40.697Z,5.95
2022-09-14T07:05:42.622Z,6.13
2022-09-14T07:06:45.018Z,6.50
2022-09-14T07:07:46.818Z,6.02
2022-09-14T07:08:48.692Z,6.35
2022-09-14T07:09:50.467Z,6.16
2022-09-14T07:10:53.025Z,5.83
2022-09-14T07:11:54.844Z,5.92
2022-09-14T07:12:57.053Z,5.87
2022-09-14T07:13:58.886Z,5.99
2022-09-14T07:15:00.703Z,5.76
2022-09-14T07:16:02.679Z,5.82
2022-09-14T07:17:04.496Z,5.94
2022-09-14T07:18:06.938Z,5.88
2022-09-14T07:19:08.862Z,6.47
2022-09-14T07:20:11.598Z,6.22
2022-09-14T07:21:13.430Z,6.00
2022-09-14T07:22:15.252Z,5.45
2022-09-14T07:23:17.304Z,5.43
2022-09-14T07:24:19.410Z,5.56
2022-09-14T07:25:21.226Z,5.08
2022-09-14T07:26:23.483Z,5.63
2022-09-14T07:27:25.288Z,5.16
2022-09-14T07:28:27.428Z,5.41
2022-09-14T07:29:29.861Z,5.41
2022-09-14T07:30:32.602Z,5.58
2022-09-14T07:31:34.881Z,5.70
2022-09-14T07:32:36.771Z,6.01
2022-09-14T07:33:38.619Z,5.27
2022-09-14T07:34:40.418Z,5.50
2022-09-14T07:35:42.217Z,5.62
2022-09-14T07:36:44.156Z,5.33
2022-09-14T07:37:45.955Z,5.48
2022-09-14T07:39:01.290Z,5.33
2022-09-14T07:39:51.604Z,5.51
2022-09-14T07:40:53.782Z,5.33
2022-09-14T07:41:55.616Z,5.50
2022-09-14T07:42:57.917Z,5.33
2022-09-14T07:43:59.667Z,5.50
2022-09-14T07:45:01.387Z,4.91
2022-09-14T07:46:03.858Z,5.41
2022-09-14T07:47:06.027Z,6.14
2022-09-14T07:48:08.008Z,5.72
2022-09-14T07:49:09.949Z,5.89
2022-09-14T07:50:12.809Z,6.12
2022-09-14T07:51:14.709Z,6.11
2022-09-14T07:52:16.525Z,5.75
2022-09-14T07:53:18.341Z,5.79
2022-09-14T07:54:20.150Z,5.54
2022-09-14T07:55:21.944Z,5.92
2022-09-14T07:56:24.255Z,7.19
2022-09-14T07:57:45.493Z,7.82
2022-09-14T07:58:30.761Z,9.18
2022-09-14T07:59:36.651Z,10.53
2022-09-14T08:00:37.488Z,11.42
2022-09-14T08:01:39.426Z,12.09
2022-09-14T08:02:41.306Z,11.61
2022-09-14T08:03:43.116Z,15.31
2022-09-14T08:04:46.723Z,13.64
2022-09-14T08:05:48.832Z,13.96
2022-09-14T08:06:50.757Z,14.88
2022-09-14T08:07:52.727Z,18.68
2022-09-14T08:08:54.555Z,14.65
2022-09-14T08:09:56.357Z,19.71
2022-09-14T08:10:58.260Z,16.37
2022-09-14T08:12:00.160Z,18.67
2022-09-14T08:13:02.143Z,20.77
2022-09-14T08:14:03.971Z,31.83
2022-09-14T08:15:05.799Z,26.22
2022-09-14T08:16:07.968Z,24.10
2022-09-14T08:17:09.771Z,24.84
2022-09-14T08:18:11.629Z,27.15
2022-09-14T08:19:14.035Z,20.79
2022-09-14T08:20:17.685Z,31.71
2022-09-14T08:21:19.501Z,29.19
2022-09-14T08:22:21.337Z,20.69
2022-09-14T08:23:23.263Z,29.96
2022-09-14T08:24:25.097Z,19.13
2022-09-14T08:25:27.085Z,20.36
2022-09-14T08:26:29.896Z,24.69
2022-09-14T08:27:31.699Z,21.84
2022-09-14T08:28:33.536Z,18.80
2022-09-14T08:29:35.349Z,21.78
2022-09-14T08:30:37.263Z,20.09
2022-09-14T08:31:39.149Z,28.89
2022-09-14T08:32:41.074Z,22.11
2022-09-14T08:33:42.959Z,25.00
2022-09-14T08:34:45.400Z,19.01
2022-09-14T08:35:57.774Z,31.36
2022-09-14T08:36:50.997Z,26.65
2022-09-14T08:37:52.791Z,23.46
2022-09-14T08:38:54.695Z,33.25
2022-09-14T08:39:56.573Z,22.57
2022-09-14T08:40:58.538Z,19.15
2022-09-14T08:42:00.779Z,28.08
2022-09-14T08:43:02.603Z,23.69
2022-09-14T08:44:04.456Z,21.15
2022-09-14T08:45:09.575Z,22.07
2022-09-14T08:46:11.094Z,24.68
2022-09-14T08:47:12.999Z,19.86
2022-09-14T08:48:15.110Z,20.83
2022-09-14T08:49:16.960Z,24.37
2022-09-14T08:50:19.808Z,24.62
2022-09-14T08:51:21.612Z,27.47
2022-09-14T08:52:23.429Z,22.88
2022-09-14T08:53:25.241Z,22.17
2022-09-14T08:54:27.083Z,16.68
2022-09-14T08:55:28.916Z,14.61
2022-09-14T08:56:30.841Z,24.89
2022-09-14T08:57:32.680Z,20.19
2022-09-14T08:58:39.545Z,18.52
2022-09-14T08:59:38.146Z,27.67
2022-09-14T09:00:40.120Z,18.97
2022-09-14T09:01:41.969Z,15.63
2022-09-14T09:02:43.826Z,12.75
2022-09-14T09:03:46.902Z,20.77
2022-09-14T09:04:48.721Z,23.83
2022-09-14T09:05:50.526Z,19.71
2022-09-14T09:06:52.554Z,22.21
2022-09-14T09:07:54.364Z,22.05
2022-09-14T09:08:56.216Z,23.12
2022-09-14T09:09:58.073Z,16.50
2022-09-14T09:10:59.970Z,16.33
2022-09-14T09:12:02.140Z,12.51
2022-09-14T09:13:03.930Z,16.79
2022-09-14T09:14:05.731Z,16.81
2022-09-14T09:15:07.586Z,12.65
2022-09-14T09:16:10.182Z,19.84
2022-09-14T09:17:12.013Z,19.09
2022-09-14T09:18:13.852Z,15.45
2022-09-14T09:19:15.678Z,16.94
2022-09-14T09:20:19.348Z,10.03
2022-09-14T09:21:21.149Z,14.34
2022-09-14T09:22:22.948Z,19.91
2022-09-14T09:23:24.852Z,20.74
2022-09-14T09:24:26.642Z,16.44
2022-09-14T09:25:28.471Z,23.07
2022-09-14T09:26:30.499Z,15.73
2022-09-14T09:27:32.296Z,21.25
2022-09-14T09:28:34.108Z,20.58
2022-09-14T09:29:35.897Z,17.46
2022-09-14T09:30:37.853Z,20.87
2022-09-14T09:31:39.729Z,19.47
2022-09-14T09:32:41.546Z,17.79
2022-09-14T09:33:43.445Z,19.58
2022-09-14T09:34:45.367Z,15.85
2022-09-14T09:35:47.205Z,22.11
2022-09-14T09:36:49.121Z,15.73
2022-09-14T09:37:50.938Z,16.21
2022-09-14T09:38:52.758Z,12.37
2022-09-14T09:39:54.749Z,13.71
2022-09-14T09:40:56.840Z,15.92
2022-09-14T09:41:58.754Z,18.85
2022-09-14T09:43:00.557Z,11.89
2022-09-14T09:44:02.362Z,10.41
2022-09-14T09:45:04.434Z,17.49
2022-09-14T09:46:06.610Z,13.59
2022-09-14T09:47:08.585Z,11.23
2022-09-14T09:48:10.381Z,11.59
2022-09-14T09:49:12.187Z,8.59
2022-09-14T09:50:16.409Z,10.32
2022-09-14T09:51:23.501Z,12.62
2022-09-14T09:52:21.867Z,14.33
2022-09-14T09:53:23.677Z,11.61
2022-09-14T09:54:25.491Z,16.65
2022-09-14T09:55:27.306Z,17.81
2022-09-14T09:56:30.178Z,24.07
2022-09-14T09:57:31.981Z,9.19
2022-09-14T09:58:33.784Z,24.51
2022-09-14T09:59:35.626Z,19.15
2022-09-14T10:00:38.191Z,18.61
2022-09-14T10:01:40.159Z,10.45
2022-09-14T10:02:42.014Z,8.46
2022-09-14T10:03:43.876Z,14.90
2022-09-14T10:04:45.721Z,11.91
2022-09-14T10:05:47.628Z,10.44
2022-09-14T10:06:49.547Z,7.63
2022-09-14T10:07:51.367Z,13.06
2022-09-14T10:08:53.178Z,19.27
2022-09-14T10:09:56.018Z,13.65
2022-09-14T10:10:57.926Z,16.03
2022-09-14T10:11:59.859Z,17.37
2022-09-14T10:13:01.660Z,11.30
2022-09-14T10:14:03.481Z,9.12
2022-09-14T10:15:05.263Z,7.33
2022-09-14T10:16:07.429Z,8.64
2022-09-14T10:17:09.321Z,14.81
2022-09-14T10:18:11.147Z,10.51
2022-09-14T10:19:12.921Z,12.61
2022-09-14T10:20:15.939Z,12.91
2022-09-14T10:21:17.784Z,8.11
2022-09-14T10:22:24.287Z,13.71
2022-09-14T10:23:23.237Z,12.75
2022-09-14T10:24:25.036Z,9.27
2022-09-14T10:25:26.851Z,12.65
2022-09-14T10:26:29.155Z,14.34
2022-09-14T10:27:34.392Z,10.83
2022-09-14T10:28:34.510Z,11.60
2022-09-14T10:29:36.344Z,14.51
2022-09-14T10:30:38.242Z,12.67
2022-09-14T10:31:40.097Z,14.38
2022-09-14T10:32:41.965Z,10.43
2022-09-14T10:33:43.769Z,10.35
2022-09-14T10:34:45.570Z,7.56
2022-09-14T10:35:47.368Z,10.50
2022-09-14T10:36:49.340Z,10.26
2022-09-14T10:37:51.931Z,8.13
2022-09-14T10:38:53.750Z,10.17
2022-09-14T10:39:55.604Z,9.87
2022-09-14T10:40:57.457Z,11.19
2022-09-14T10:41:59.279Z,5.43
2022-09-14T10:43:01.107Z,9.78
2022-09-14T10:44:02.907Z,9.13
2022-09-14T10:45:04.750Z,8.14
2022-09-14T10:46:06.954Z,7.81
2022-09-14T10:47:08.710Z,9.61
2022-09-14T10:48:10.563Z,7.92
2022-09-14T10:49:12.454Z,12.69
2022-09-14T10:50:15.263Z,12.96
2022-09-14T10:51:17.072Z,12.87
2022-09-14T10:52:19.912Z,14.58
2022-09-14T10:53:21.735Z,8.58
2022-09-14T10:54:23.540Z,11.52
2022-09-14T10:55:25.332Z,8.81
2022-09-14T10:56:27.234Z,12.41
2022-09-14T10:57:29.024Z,12.49
2022-09-14T10:58:30.889Z,8.91
2022-09-14T10:59:32.722Z,6.60
2022-09-14T11:00:35.837Z,12.75
2022-09-14T11:01:37.596Z,9.24
2022-09-14T11:02:39.485Z,11.14
2022-09-14T11:03:45.712Z,12.01
2022-09-14T11:04:45.114Z,11.49
2022-09-14T11:05:46.881Z,12.21
2022-09-14T11:06:48.784Z,10.95
2022-09-14T11:07:50.590Z,12.44
2022-09-14T11:08:52.433Z,12.90
2022-09-14T11:09:54.241Z,12.29
2022-09-14T11:10:56.142Z,13.79
2022-09-14T11:11:57.928Z,10.84
2022-09-14T11:12:59.731Z,11.41
2022-09-14T11:14:01.571Z,10.51
2022-09-14T11:15:03.364Z,13.04
2022-09-14T11:16:05.522Z,8.28
2022-09-14T11:17:07.378Z,12.32
2022-09-14T11:18:09.163Z,10.44
2022-09-14T11:19:10.977Z,12.44
2022-09-14T11:20:14.296Z,10.69
2022-09-14T11:21:16.151Z,9.11
2022-09-14T11:22:17.938Z,7.29
2022-09-14T11:23:19.818Z,8.94
2022-09-14T11:24:22.462Z,12.46
2022-09-14T11:25:24.263Z,12.52
2022-09-14T11:26:26.559Z,10.37
2022-09-14T11:27:28.363Z,6.97
2022-09-14T11:28:30.146Z,8.09
2022-09-14T11:29:31.885Z,11.91
2022-09-14T11:30:33.798Z,10.48
2022-09-14T11:31:35.651Z,10.73
2022-09-14T11:32:37.401Z,9.37
2022-09-14T11:33:39.192Z,9.59
2022-09-14T11:34:41.016Z,8.16
2022-09-14T11:35:42.807Z,10.35
2022-09-14T11:36:44.708Z,10.39
2022-09-14T11:37:46.508Z,9.97
2022-09-14T11:38:48.324Z,7.94
2022-09-14T11:39:50.240Z,10.64
2022-09-14T11:40:52.173Z,10.74
2022-09-14T11:41:54.663Z,8.89
2022-09-14T11:42:56.463Z,10.74
2022-09-14T11:43:58.846Z,8.98
2022-09-14T11:45:00.883Z,6.39
2022-09-14T11:46:02.824Z,6.55
2022-09-14T11:47:04.575Z,7.79
2022-09-14T11:48:12.447Z,7.21
2022-09-14T11:49:09.999Z,7.75
2022-09-14T11:50:12.539Z,6.85
2022-09-14T11:51:14.339Z,7.50
2022-09-14T11:52:16.132Z,6.49
2022-09-14T11:53:17.955Z,9.01
2022-09-14T11:54:20.079Z,5.99
2022-09-14T11:55:21.892Z,8.19
2022-09-14T11:56:23.807Z,7.07
2022-09-14T11:57:25.603Z,7.60
2022-09-14T11:58:27.413Z,7.87
2022-09-14T11:59:29.204Z,8.43
2022-09-14T12:00:31.746Z,8.87
2022-09-14T12:01:33.537Z,6.71
2022-09-14T12:02:35.387Z,8.42
2022-09-14T12:03:37.186Z,7.35
2022-09-14T12:04:38.987Z,7.53
2022-09-14T12:05:40.762Z,8.79
2022-09-14T12:06:42.654Z,10.49
2022-09-14T12:07:44.440Z,9.62
2022-09-14T12:08:46.246Z,7.30
2022-09-14T12:09:48.087Z,8.77
2022-09-14T12:10:50.607Z,7.98
2022-09-14T12:11:52.421Z,7.58
2022-09-14T12:12:54.225Z,8.45
2022-09-14T12:13:56.030Z,7.05
2022-09-14T12:14:57.847Z,6.08
2022-09-14T12:15:59.905Z,8.61
2022-09-14T12:17:09.392Z,6.65
2022-09-14T12:18:05.291Z,7.06
2022-09-14T12:19:07.113Z,6.69
2022-09-14T12:20:10.004Z,6.96
2022-09-14T12:21:11.855Z,7.09
2022-09-14T12:22:13.655Z,7.16
2022-09-14T12:23:15.467Z,6.79
2022-09-14T12:24:17.822Z,5.83
2022-09-14T12:25:20.037Z,6.78
2022-09-14T12:26:22.179Z,7.04
2022-09-14T12:27:23.985Z,7.36
2022-09-14T12:28:25.783Z,5.95
2022-09-14T12:29:27.730Z,6.68
2022-09-14T12:30:29.642Z,6.15
2022-09-14T12:31:31.546Z,6.34
2022-09-14T12:32:33.307Z,6.05
2022-09-14T12:33:35.103Z,5.78
2022-09-14T12:34:36.911Z,6.17
2022-09-14T12:35:38.719Z,6.10
2022-09-14T12:36:40.668Z,5.91
2022-09-14T12:37:42.477Z,6.14
2022-09-14T12:38:44.311Z,5.39
2022-09-14T12:39:46.120Z,5.56
2022-09-14T12:40:47.927Z,5.30
2022-09-14T12:41:49.788Z,4.93
2022-09-14T12:42:51.588Z,5.47
2022-09-14T12:43:53.383Z,5.20
2022-09-14T12:44:55.183Z,5.16
2022-09-14T12:45:57.072Z,5.09
2022-09-14T12:46:59.067Z,4.51
2022-09-14T12:48:00.860Z,5.27
2022-09-14T12:49:02.685Z,5.14
2022-09-14T12:50:04.714Z,4.67
2022-09-14T12:51:06.672Z,5.02
2022-09-14T12:52:08.493Z,5.24
2022-09-14T12:53:10.326Z,4.82
2022-09-14T12:54:12.135Z,4.91
2022-09-14T12:55:13.953Z,4.61
2022-09-14T12:56:16.596Z,4.69
2022-09-14T12:57:18.434Z,4.78
2022-09-14T12:58:20.234Z,4.52
2022-09-14T12:59:22.058Z,4.73
2022-09-14T13:00:24.373Z,3.98
2022-09-14T13:01:26.578Z,4.27
2022-09-14T13:02:28.621Z,4.55
2022-09-14T13:03:30.463Z,4.15
2022-09-14T13:04:32.277Z,4.44
2022-09-14T13:05:34.082Z,4.71
2022-09-14T13:06:36.188Z,4.31
2022-09-14T13:07:38.041Z,4.26
2022-09-14T13:08:39.861Z,4.39
2022-09-14T13:09:41.680Z,9.14
2022-09-14T13:10:43.587Z,4.87
2022-09-14T13:11:45.616Z,5.95
2022-09-14T13:12:47.469Z,5.62
2022-09-14T13:13:49.288Z,6.30
2022-09-14T13:14:51.091Z,7.51
2022-09-14T13:15:52.961Z,7.41
2022-09-14T13:16:54.950Z,6.72
2022-09-14T13:17:56.772Z,6.17
2022-09-14T13:18:58.588Z,6.35
2022-09-14T13:20:00.387Z,5.49
2022-09-14T13:21:02.193Z,5.26
2022-09-14T13:22:03.995Z,6.21
2022-09-14T13:23:05.839Z,4.55
2022-09-14T13:24:07.645Z,4.53
2022-09-14T13:25:09.447Z,4.69
2022-09-14T13:26:11.962Z,4.09
2022-09-14T13:27:13.849Z,4.11
2022-09-14T13:28:15.681Z,3.87
2022-09-14T13:29:17.517Z,3.77
2022-09-14T13:30:21.160Z,3.82
2022-09-14T13:31:23.017Z,4.26
2022-09-14T13:32:24.768Z,4.62
2022-09-14T13:33:26.616Z,4.31
2022-09-14T13:34:28.421Z,4.39
2022-09-14T13:35:30.237Z,3.95